Terminal Aerodrome Forecast
Issued by NWS

Home | Current Version | Previous Version | Text Only | Print | Product List | Glossary On
Versions: 1 2 3 4 5 6 7 8 9 10 11 12 13 14 15
000
FTUS41 KCAR 201700
TAFHUL
TAF
KHUL 201726Z 2018/2118 21009G18KT P6SM BKN070
     FM210400 20010KT P6SM OVC020
     FM211100 20010KT P6SM SCT008
     FM211300 20011KT P6SM BKN030
     FM211500 20011KT P6SM BKN040=

USA.gov is the U.S. government's official web portal to all federal, state and local government web resources and services.